Terminal Aerodrome Forecast
Issued by NWS Detroit/Pontiac, MI

Home | Current Version | Previous Version | Text Only | Print | Product List | Glossary On
Versions: 1 2 3 4 5 6 7 8 9 10 11 12 13 14 15 16 17 18 19 20 21 22 23 24 25 26 27 28 29
000
FTUS43 KDTX 050523
TAFDTW
TAF
KDTW 050523Z 0506/0612 04008KT P6SM SCT080 BKN250
     FM051200 08006KT P6SM BKN050 OVC100
     FM051600 09010KT 5SM SHRA OVC045
     FM052200 10007KT 4SM -SHRA BR OVC025
     FM060300 11006KT 3SM BR OVC015=

USA.gov is the U.S. government's official web portal to all federal, state and local government web resources and services.